sensor_id;sensor_type;location;lat;lon;timestamp;P1;durP1;ratioP1;P2;durP2;ratioP2
64799;SDS011;51233;51.982;4.594;2023-07-30T00:02:05;10.55;;;2.75;;
64799;SDS011;51233;51.982;4.594;2023-07-30T00:05:05;9.55;;;2.63;;
64799;SDS011;51233;51.982;4.594;2023-07-30T00:08:05;12.80;;;3.30;;
64799;SDS011;51233;51.982;4.594;2023-07-30T00:11:06;12.43;;;3.08;;
64799;SDS011;51233;51.982;4.594;2023-07-30T00:14:06;10.13;;;3.25;;
64799;SDS011;51233;51.982;4.594;2023-07-30T00:17:07;13.43;;;3.30;;
64799;SDS011;51233;51.982;4.594;2023-07-30T00:20:07;15.23;;;3.57;;
64799;SDS011;51233;51.982;4.594;2023-07-30T00:23:08;16.48;;;3.35;;
64799;SDS011;51233;51.982;4.594;2023-07-30T00:26:14;11.43;;;3.22;;
64799;SDS011;51233;51.982;4.594;2023-07-30T00:29:14;11.07;;;3.30;;
64799;SDS011;51233;51.982;4.594;2023-07-30T00:32:14;14.50;;;3.30;;
64799;SDS011;51233;51.982;4.594;2023-07-30T00:35:16;12.75;;;3.38;;
64799;SDS011;51233;51.982;4.594;2023-07-30T00:38:16;14.63;;;3.17;;
64799;SDS011;51233;51.982;4.594;2023-07-30T00:41:32;14.27;;;3.15;;
64799;SDS011;51233;51.982;4.594;2023-07-30T00:44:35;20.37;;;3.80;;
64799;SDS011;51233;51.982;4.594;2023-07-30T00:47:38;11.75;;;3.00;;
64799;SDS011;51233;51.982;4.594;2023-07-30T00:50:39;15.07;;;3.83;;
64799;SDS011;51233;51.982;4.594;2023-07-30T00:53:39;12.97;;;3.20;;
64799;SDS011;51233;51.982;4.594;2023-07-30T00:56:40;18.63;;;4.00;;
64799;SDS011;51233;51.982;4.594;2023-07-30T00:59:42;19.90;;;3.83;;
64799;SDS011;51233;51.982;4.594;2023-07-30T01:02:42;18.57;;;3.83;;
64799;SDS011;51233;51.982;4.594;2023-07-30T01:05:43;15.40;;;3.47;;
64799;SDS011;51233;51.982;4.594;2023-07-30T01:08:44;18.38;;;3.92;;
64799;SDS011;51233;51.982;4.594;2023-07-30T01:11:44;21.80;;;3.83;;
64799;SDS011;51233;51.982;4.594;2023-07-30T01:14:47;16.83;;;3.53;;
64799;SDS011;51233;51.982;4.594;2023-07-30T01:17:48;14.53;;;4.03;;
64799;SDS011;51233;51.982;4.594;2023-07-30T01:20:52;14.07;;;3.43;;
64799;SDS011;51233;51.982;4.594;2023-07-30T01:23:52;19.35;;;4.22;;
64799;SDS011;51233;51.982;4.594;2023-07-30T01:27:00;15.97;;;3.73;;
64799;SDS011;51233;51.982;4.594;2023-07-30T01:33:10;17.15;;;3.83;;
64799;SDS011;51233;51.982;4.594;2023-07-30T01:36:15;11.45;;;2.95;;
64799;SDS011;51233;51.982;4.594;2023-07-30T01:39:18;16.17;;;3.65;;
64799;SDS011;51233;51.982;4.594;2023-07-30T01:42:18;15.82;;;3.47;;
64799;SDS011;51233;51.982;4.594;2023-07-30T01:45:19;13.07;;;3.60;;
64799;SDS011;51233;51.982;4.594;2023-07-30T01:48:19;15.67;;;3.70;;
64799;SDS011;51233;51.982;4.594;2023-07-30T01:51:19;17.87;;;3.33;;
64799;SDS011;51233;51.982;4.594;2023-07-30T01:54:19;17.97;;;3.93;;
64799;SDS011;51233;51.982;4.594;2023-07-30T01:57:20;19.27;;;3.72;;
64799;SDS011;51233;51.982;4.594;2023-07-30T02:00:20;15.47;;;3.60;;
64799;SDS011;51233;51.982;4.594;2023-07-30T02:03:20;16.40;;;3.72;;
64799;SDS011;51233;51.982;4.594;2023-07-30T02:06:20;19.13;;;3.80;;
64799;SDS011;51233;51.982;4.594;2023-07-30T02:09:20;15.63;;;3.50;;
64799;SDS011;51233;51.982;4.594;2023-07-30T02:12:21;16.87;;;3.63;;
64799;SDS011;51233;51.982;4.594;2023-07-30T02:15:21;14.97;;;3.80;;
64799;SDS011;51233;51.982;4.594;2023-07-30T02:18:22;18.70;;;4.03;;
64799;SDS011;51233;51.982;4.594;2023-07-30T02:21:22;16.20;;;3.40;;
64799;SDS011;51233;51.982;4.594;2023-07-30T02:24:22;16.13;;;3.20;;
64799;SDS011;51233;51.982;4.594;2023-07-30T02:27:22;23.73;;;4.70;;
64799;SDS011;51233;51.982;4.594;2023-07-30T02:30:23;16.37;;;3.73;;
64799;SDS011;51233;51.982;4.594;2023-07-30T02:33:23;18.45;;;3.90;;
64799;SDS011;51233;51.982;4.594;2023-07-30T02:36:23;19.30;;;3.97;;
64799;SDS011;51233;51.982;4.594;2023-07-30T02:39:24;19.40;;;4.17;;
64799;SDS011;51233;51.982;4.594;2023-07-30T02:42:24;21.35;;;4.53;;
64799;SDS011;51233;51.982;4.594;2023-07-30T02:45:25;21.37;;;3.93;;
64799;SDS011;51233;51.982;4.594;2023-07-30T02:48:25;19.70;;;3.63;;
64799;SDS011;51233;51.982;4.594;2023-07-30T02:51:25;15.00;;;3.83;;
64799;SDS011;51233;51.982;4.594;2023-07-30T02:54:25;19.50;;;4.30;;
64799;SDS011;51233;51.982;4.594;2023-07-30T02:57:25;20.00;;;3.60;;
64799;SDS011;51233;51.982;4.594;2023-07-30T03:00:26;13.47;;;3.50;;
64799;SDS011;51233;51.982;4.594;2023-07-30T03:03:26;17.63;;;4.57;;
64799;SDS011;51233;51.982;4.594;2023-07-30T03:06:29;19.63;;;3.77;;
64799;SDS011;51233;51.982;4.594;2023-07-30T03:09:32;12.15;;;2.80;;
64799;SDS011;51233;51.982;4.594;2023-07-30T03:12:35;22.53;;;4.23;;
64799;SDS011;51233;51.982;4.594;2023-07-30T03:15:35;16.40;;;3.80;;
64799;SDS011;51233;51.982;4.594;2023-07-30T03:18:36;20.43;;;4.60;;
64799;SDS011;51233;51.982;4.594;2023-07-30T03:21:36;17.37;;;3.90;;
64799;SDS011;51233;51.982;4.594;2023-07-30T03:24:36;15.20;;;3.88;;
64799;SDS011;51233;51.982;4.594;2023-07-30T03:27:39;13.07;;;3.43;;
64799;SDS011;51233;51.982;4.594;2023-07-30T03:30:39;19.13;;;4.00;;
64799;SDS011;51233;51.982;4.594;2023-07-30T03:33:39;15.00;;;3.50;;
64799;SDS011;51233;51.982;4.594;2023-07-30T03:36:43;14.68;;;3.60;;
64799;SDS011;51233;51.982;4.594;2023-07-30T03:39:44;15.70;;;3.43;;
64799;SDS011;51233;51.982;4.594;2023-07-30T03:42:44;21.80;;;3.97;;
64799;SDS011;51233;51.982;4.594;2023-07-30T03:45:44;24.80;;;5.00;;
64799;SDS011;51233;51.982;4.594;2023-07-30T03:48:44;24.45;;;4.68;;
64799;SDS011;51233;51.982;4.594;2023-07-30T03:51:44;18.33;;;4.03;;
64799;SDS011;51233;51.982;4.594;2023-07-30T03:54:45;14.00;;;3.67;;
64799;SDS011;51233;51.982;4.594;2023-07-30T03:57:45;20.38;;;4.13;;
64799;SDS011;51233;51.982;4.594;2023-07-30T04:00:46;18.60;;;4.15;;
64799;SDS011;51233;51.982;4.594;2023-07-30T04:03:46;18.40;;;3.83;;
64799;SDS011;51233;51.982;4.594;2023-07-30T04:06:46;23.70;;;4.90;;
64799;SDS011;51233;51.982;4.594;2023-07-30T04:09:46;19.83;;;4.17;;
64799;SDS011;51233;51.982;4.594;2023-07-30T04:12:47;23.27;;;4.13;;
64799;SDS011;51233;51.982;4.594;2023-07-30T04:15:47;18.17;;;3.50;;
64799;SDS011;51233;51.982;4.594;2023-07-30T04:18:48;14.83;;;2.93;;
64799;SDS011;51233;51.982;4.594;2023-07-30T04:21:48;14.00;;;3.50;;
64799;SDS011;51233;51.982;4.594;2023-07-30T04:24:48;18.60;;;4.07;;
64799;SDS011;51233;51.982;4.594;2023-07-30T04:27:48;18.57;;;3.60;;
64799;SDS011;51233;51.982;4.594;2023-07-30T04:30:48;17.77;;;4.00;;
64799;SDS011;51233;51.982;4.594;2023-07-30T04:33:49;17.80;;;4.17;;
64799;SDS011;51233;51.982;4.594;2023-07-30T04:36:49;14.13;;;3.50;;
64799;SDS011;51233;51.982;4.594;2023-07-30T04:39:49;17.80;;;4.50;;
64799;SDS011;51233;51.982;4.594;2023-07-30T04:42:49;18.07;;;3.73;;
64799;SDS011;51233;51.982;4.594;2023-07-30T04:45:50;23.15;;;4.45;;
64799;SDS011;51233;51.982;4.594;2023-07-30T04:48:50;20.53;;;4.10;;
64799;SDS011;51233;51.982;4.594;2023-07-30T04:51:50;18.08;;;3.65;;
64799;SDS011;51233;51.982;4.594;2023-07-30T04:54:50;21.93;;;4.33;;
64799;SDS011;51233;51.982;4.594;2023-07-30T04:57:50;25.37;;;5.27;;
64799;SDS011;51233;51.982;4.594;2023-07-30T05:01:00;24.07;;;4.50;;
64799;SDS011;51233;51.982;4.594;2023-07-30T05:04:00;23.40;;;4.60;;
64799;SDS011;51233;51.982;4.594;2023-07-30T05:07:00;18.87;;;4.40;;
64799;SDS011;51233;51.982;4.594;2023-07-30T05:10:00;19.03;;;4.33;;
64799;SDS011;51233;51.982;4.594;2023-07-30T05:13:01;20.50;;;3.67;;
64799;SDS011;51233;51.982;4.594;2023-07-30T05:16:01;18.97;;;3.77;;
64799;SDS011;51233;51.982;4.594;2023-07-30T05:19:01;17.30;;;3.93;;
64799;SDS011;51233;51.982;4.594;2023-07-30T05:22:02;23.17;;;4.13;;
64799;SDS011;51233;51.982;4.594;2023-07-30T05:25:02;20.03;;;3.97;;
64799;SDS011;51233;51.982;4.594;2023-07-30T05:28:02;22.17;;;4.77;;
64799;SDS011;51233;51.982;4.594;2023-07-30T05:31:03;15.80;;;4.43;;
64799;SDS011;51233;51.982;4.594;2023-07-30T05:34:03;16.33;;;3.97;;
64799;SDS011;51233;51.982;4.594;2023-07-30T05:37:03;16.80;;;3.73;;
64799;SDS011;51233;51.982;4.594;2023-07-30T05:40:03;19.53;;;3.97;;
64799;SDS011;51233;51.982;4.594;2023-07-30T05:43:04;19.57;;;3.70;;
64799;SDS011;51233;51.982;4.594;2023-07-30T05:46:04;19.27;;;4.53;;
64799;SDS011;51233;51.982;4.594;2023-07-30T05:49:04;19.60;;;4.17;;
64799;SDS011;51233;51.982;4.594;2023-07-30T05:52:05;19.83;;;4.07;;
64799;SDS011;51233;51.982;4.594;2023-07-30T05:55:08;18.65;;;4.85;;
64799;SDS011;51233;51.982;4.594;2023-07-30T05:58:08;22.33;;;4.43;;
64799;SDS011;51233;51.982;4.594;2023-07-30T06:01:08;21.42;;;4.22;;
64799;SDS011;51233;51.982;4.594;2023-07-30T06:04:09;23.27;;;4.60;;
64799;SDS011;51233;51.982;4.594;2023-07-30T06:07:09;18.53;;;3.90;;
64799;SDS011;51233;51.982;4.594;2023-07-30T06:10:10;16.73;;;4.10;;
64799;SDS011;51233;51.982;4.594;2023-07-30T06:13:10;22.00;;;4.27;;
64799;SDS011;51233;51.982;4.594;2023-07-30T06:16:11;19.87;;;4.23;;
64799;SDS011;51233;51.982;4.594;2023-07-30T06:19:11;18.73;;;4.13;;
64799;SDS011;51233;51.982;4.594;2023-07-30T06:22:11;18.57;;;4.13;;
64799;SDS011;51233;51.982;4.594;2023-07-30T06:25:11;20.73;;;4.60;;
64799;SDS011;51233;51.982;4.594;2023-07-30T06:28:12;23.73;;;4.43;;
64799;SDS011;51233;51.982;4.594;2023-07-30T06:31:12;21.20;;;4.32;;
64799;SDS011;51233;51.982;4.594;2023-07-30T06:34:12;18.07;;;4.53;;
64799;SDS011;51233;51.982;4.594;2023-07-30T06:37:12;17.40;;;4.43;;
64799;SDS011;51233;51.982;4.594;2023-07-30T06:40:12;15.87;;;3.17;;
64799;SDS011;51233;51.982;4.594;2023-07-30T06:43:13;16.07;;;3.27;;
64799;SDS011;51233;51.982;4.594;2023-07-30T06:46:13;21.87;;;3.70;;
64799;SDS011;51233;51.982;4.594;2023-07-30T06:49:13;17.83;;;4.20;;
64799;SDS011;51233;51.982;4.594;2023-07-30T06:52:13;17.45;;;3.60;;
64799;SDS011;51233;51.982;4.594;2023-07-30T06:55:14;13.93;;;3.57;;
64799;SDS011;51233;51.982;4.594;2023-07-30T06:58:14;13.23;;;3.20;;
64799;SDS011;51233;51.982;4.594;2023-07-30T07:01:14;18.95;;;3.53;;
64799;SDS011;51233;51.982;4.594;2023-07-30T07:04:14;21.27;;;4.50;;
64799;SDS011;51233;51.982;4.594;2023-07-30T07:07:15;17.27;;;5.23;;
64799;SDS011;51233;51.982;4.594;2023-07-30T07:10:15;18.57;;;3.70;;
64799;SDS011;51233;51.982;4.594;2023-07-30T07:13:15;24.53;;;4.23;;
64799;SDS011;51233;51.982;4.594;2023-07-30T07:16:16;17.80;;;4.17;;
64799;SDS011;51233;51.982;4.594;2023-07-30T07:19:16;19.90;;;4.80;;
64799;SDS011;51233;51.982;4.594;2023-07-30T07:22:16;19.50;;;4.90;;
64799;SDS011;51233;51.982;4.594;2023-07-30T07:25:17;16.77;;;4.38;;
64799;SDS011;51233;51.982;4.594;2023-07-30T07:28:19;25.50;;;4.40;;
64799;SDS011;51233;51.982;4.594;2023-07-30T07:31:19;21.03;;;3.83;;
64799;SDS011;51233;51.982;4.594;2023-07-30T07:34:19;17.33;;;3.47;;
64799;SDS011;51233;51.982;4.594;2023-07-30T07:37:20;18.17;;;4.33;;
64799;SDS011;51233;51.982;4.594;2023-07-30T07:40:20;20.23;;;4.40;;
64799;SDS011;51233;51.982;4.594;2023-07-30T07:43:20;16.63;;;4.00;;
64799;SDS011;51233;51.982;4.594;2023-07-30T07:46:21;25.77;;;4.77;;
64799;SDS011;51233;51.982;4.594;2023-07-30T07:49:21;18.37;;;4.20;;
64799;SDS011;51233;51.982;4.594;2023-07-30T07:52:22;17.47;;;3.00;;
64799;SDS011;51233;51.982;4.594;2023-07-30T07:55:23;13.23;;;3.50;;
64799;SDS011;51233;51.982;4.594;2023-07-30T07:58:23;17.47;;;3.63;;
64799;SDS011;51233;51.982;4.594;2023-07-30T08:01:23;14.17;;;3.93;;
64799;SDS011;51233;51.982;4.594;2023-07-30T08:04:23;6.83;;;1.67;;
64799;SDS011;51233;51.982;4.594;2023-07-30T08:07:24;9.10;;;2.50;;
64799;SDS011;51233;51.982;4.594;2023-07-30T08:10:24;11.00;;;2.80;;
64799;SDS011;51233;51.982;4.594;2023-07-30T08:13:24;8.70;;;2.20;;
64799;SDS011;51233;51.982;4.594;2023-07-30T08:16:24;10.30;;;2.05;;
64799;SDS011;51233;51.982;4.594;2023-07-30T08:19:25;10.73;;;1.93;;
64799;SDS011;51233;51.982;4.594;2023-07-30T08:22:26;10.43;;;2.08;;
64799;SDS011;51233;51.982;4.594;2023-07-30T08:25:26;8.97;;;2.40;;
64799;SDS011;51233;51.982;4.594;2023-07-30T08:28:26;9.37;;;2.43;;
64799;SDS011;51233;51.982;4.594;2023-07-30T08:31:26;10.68;;;2.33;;
64799;SDS011;51233;51.982;4.594;2023-07-30T08:34:27;10.47;;;2.70;;
64799;SDS011;51233;51.982;4.594;2023-07-30T08:37:27;7.97;;;2.17;;
64799;SDS011;51233;51.982;4.594;2023-07-30T08:40:27;11.70;;;2.87;;
64799;SDS011;51233;51.982;4.594;2023-07-30T08:43:28;6.23;;;2.13;;
64799;SDS011;51233;51.982;4.594;2023-07-30T08:46:28;9.40;;;2.97;;
64799;SDS011;51233;51.982;4.594;2023-07-30T08:49:28;9.33;;;2.50;;
64799;SDS011;51233;51.982;4.594;2023-07-30T08:52:32;10.38;;;1.98;;
64799;SDS011;51233;51.982;4.594;2023-07-30T08:55:34;14.00;;;2.72;;
64799;SDS011;51233;51.982;4.594;2023-07-30T08:58:34;11.20;;;2.40;;
64799;SDS011;51233;51.982;4.594;2023-07-30T09:01:37;10.30;;;2.50;;
64799;SDS011;51233;51.982;4.594;2023-07-30T09:04:37;7.70;;;1.75;;
64799;SDS011;51233;51.982;4.594;2023-07-30T09:07:39;7.32;;;2.17;;
64799;SDS011;51233;51.982;4.594;2023-07-30T09:10:39;11.27;;;2.93;;
64799;SDS011;51233;51.982;4.594;2023-07-30T09:13:41;8.83;;;2.60;;
64799;SDS011;51233;51.982;4.594;2023-07-30T09:16:44;11.60;;;2.30;;
64799;SDS011;51233;51.982;4.594;2023-07-30T09:19:44;6.40;;;2.13;;
64799;SDS011;51233;51.982;4.594;2023-07-30T09:22:47;8.82;;;2.15;;
64799;SDS011;51233;51.982;4.594;2023-07-30T09:25:49;11.45;;;2.28;;
64799;SDS011;51233;51.982;4.594;2023-07-30T09:28:49;9.90;;;2.73;;
64799;SDS011;51233;51.982;4.594;2023-07-30T09:31:52;7.13;;;1.97;;
64799;SDS011;51233;51.982;4.594;2023-07-30T09:34:54;9.13;;;2.30;;
64799;SDS011;51233;51.982;4.594;2023-07-30T09:38:02;3.60;;;1.47;;
64799;SDS011;51233;51.982;4.594;2023-07-30T09:41:02;6.75;;;2.10;;
64799;SDS011;51233;51.982;4.594;2023-07-30T09:44:05;10.50;;;2.43;;
64799;SDS011;51233;51.982;4.594;2023-07-30T09:47:09;5.13;;;1.48;;
64799;SDS011;51233;51.982;4.594;2023-07-30T09:50:10;13.27;;;2.28;;
64799;SDS011;51233;51.982;4.594;2023-07-30T09:53:10;6.67;;;1.57;;
64799;SDS011;51233;51.982;4.594;2023-07-30T09:56:11;8.70;;;1.90;;
64799;SDS011;51233;51.982;4.594;2023-07-30T09:59:11;8.80;;;1.90;;
64799;SDS011;51233;51.982;4.594;2023-07-30T10:02:12;7.63;;;2.20;;
64799;SDS011;51233;51.982;4.594;2023-07-30T10:05:16;5.43;;;1.27;;
64799;SDS011;51233;51.982;4.594;2023-07-30T10:08:18;3.95;;;1.20;;
64799;SDS011;51233;51.982;4.594;2023-07-30T10:11:20;5.78;;;1.52;;
64799;SDS011;51233;51.982;4.594;2023-07-30T10:14:21;7.37;;;2.50;;
64799;SDS011;51233;51.982;4.594;2023-07-30T10:17:23;4.15;;;1.27;;
64799;SDS011;51233;51.982;4.594;2023-07-30T10:20:24;7.70;;;2.07;;
64799;SDS011;51233;51.982;4.594;2023-07-30T10:26:29;8.60;;;1.70;;
64799;SDS011;51233;51.982;4.594;2023-07-30T10:29:29;7.68;;;2.38;;
64799;SDS011;51233;51.982;4.594;2023-07-30T10:32:37;11.00;;;2.10;;
64799;SDS011;51233;51.982;4.594;2023-07-30T10:35:38;4.15;;;1.50;;
64799;SDS011;51233;51.982;4.594;2023-07-30T10:38:38;8.73;;;1.85;;
64799;SDS011;51233;51.982;4.594;2023-07-30T10:41:39;5.87;;;1.70;;
64799;SDS011;51233;51.982;4.594;2023-07-30T10:44:39;8.30;;;1.80;;
64799;SDS011;51233;51.982;4.594;2023-07-30T10:47:43;9.38;;;2.30;;
64799;SDS011;51233;51.982;4.594;2023-07-30T10:50:43;12.27;;;2.57;;
64799;SDS011;51233;51.982;4.594;2023-07-30T10:53:49;8.15;;;2.03;;
64799;SDS011;51233;51.982;4.594;2023-07-30T10:59:50;6.10;;;1.50;;
64799;SDS011;51233;51.982;4.594;2023-07-30T11:02:54;3.90;;;1.20;;
64799;SDS011;51233;51.982;4.594;2023-07-30T11:05:54;5.10;;;1.27;;
64799;SDS011;51233;51.982;4.594;2023-07-30T11:08:55;5.43;;;1.60;;
64799;SDS011;51233;51.982;4.594;2023-07-30T11:11:55;9.13;;;1.80;;
64799;SDS011;51233;51.982;4.594;2023-07-30T11:15:02;3.47;;;1.10;;
64799;SDS011;51233;51.982;4.594;2023-07-30T11:18:02;6.40;;;1.52;;
64799;SDS011;51233;51.982;4.594;2023-07-30T11:21:03;7.20;;;1.77;;
64799;SDS011;51233;51.982;4.594;2023-07-30T11:24:04;6.55;;;1.80;;
64799;SDS011;51233;51.982;4.594;2023-07-30T11:27:04;6.23;;;1.60;;
64799;SDS011;51233;51.982;4.594;2023-07-30T11:30:05;7.17;;;2.10;;
64799;SDS011;51233;51.982;4.594;2023-07-30T11:33:05;10.30;;;1.90;;
64799;SDS011;51233;51.982;4.594;2023-07-30T11:36:05;11.50;;;2.13;;
64799;SDS011;51233;51.982;4.594;2023-07-30T11:39:07;7.63;;;1.60;;
64799;SDS011;51233;51.982;4.594;2023-07-30T11:42:08;6.38;;;1.90;;
64799;SDS011;51233;51.982;4.594;2023-07-30T11:45:18;13.35;;;1.80;;
64799;SDS011;51233;51.982;4.594;2023-07-30T11:48:19;11.50;;;2.35;;
64799;SDS011;51233;51.982;4.594;2023-07-30T11:51:27;6.47;;;1.95;;
64799;SDS011;51233;51.982;4.594;2023-07-30T11:54:28;8.80;;;1.95;;
64799;SDS011;51233;51.982;4.594;2023-07-30T11:57:35;9.13;;;2.10;;
64799;SDS011;51233;51.982;4.594;2023-07-30T12:00:36;5.50;;;1.98;;
64799;SDS011;51233;51.982;4.594;2023-07-30T12:03:37;9.17;;;2.50;;
64799;SDS011;51233;51.982;4.594;2023-07-30T12:06:38;5.85;;;1.60;;
64799;SDS011;51233;51.982;4.594;2023-07-30T12:09:38;7.28;;;2.13;;
64799;SDS011;51233;51.982;4.594;2023-07-30T12:12:45;6.70;;;2.37;;
64799;SDS011;51233;51.982;4.594;2023-07-30T12:15:52;10.50;;;2.00;;
64799;SDS011;51233;51.982;4.594;2023-07-30T12:18:52;6.43;;;1.60;;
64799;SDS011;51233;51.982;4.594;2023-07-30T12:21:52;5.03;;;1.90;;
64799;SDS011;51233;51.982;4.594;2023-07-30T12:24:56;6.90;;;1.45;;
64799;SDS011;51233;51.982;4.594;2023-07-30T12:27:56;4.78;;;1.85;;
64799;SDS011;51233;51.982;4.594;2023-07-30T12:30:59;6.50;;;1.80;;
64799;SDS011;51233;51.982;4.594;2023-07-30T12:33:59;3.20;;;1.33;;
64799;SDS011;51233;51.982;4.594;2023-07-30T12:37:00;5.67;;;1.70;;
64799;SDS011;51233;51.982;4.594;2023-07-30T12:40:00;6.80;;;1.60;;
64799;SDS011;51233;51.982;4.594;2023-07-30T12:43:01;5.53;;;1.50;;
64799;SDS011;51233;51.982;4.594;2023-07-30T12:46:05;7.82;;;1.75;;
64799;SDS011;51233;51.982;4.594;2023-07-30T12:49:06;3.58;;;1.10;;
64799;SDS011;51233;51.982;4.594;2023-07-30T12:52:07;5.72;;;1.67;;
64799;SDS011;51233;51.982;4.594;2023-07-30T12:55:07;5.67;;;1.73;;
64799;SDS011;51233;51.982;4.594;2023-07-30T12:58:07;5.73;;;1.67;;
64799;SDS011;51233;51.982;4.594;2023-07-30T13:01:07;2.60;;;0.93;;
64799;SDS011;51233;51.982;4.594;2023-07-30T13:04:17;6.57;;;1.77;;
64799;SDS011;51233;51.982;4.594;2023-07-30T13:07:17;7.60;;;1.58;;
64799;SDS011;51233;51.982;4.594;2023-07-30T13:10:17;7.53;;;2.13;;
64799;SDS011;51233;51.982;4.594;2023-07-30T13:13:17;7.50;;;1.40;;
64799;SDS011;51233;51.982;4.594;2023-07-30T13:16:18;7.63;;;1.23;;
64799;SDS011;51233;51.982;4.594;2023-07-30T13:19:18;10.10;;;2.37;;
64799;SDS011;51233;51.982;4.594;2023-07-30T13:22:18;7.13;;;1.93;;
64799;SDS011;51233;51.982;4.594;2023-07-30T13:25:18;4.80;;;1.70;;
64799;SDS011;51233;51.982;4.594;2023-07-30T13:28:22;7.20;;;1.90;;
64799;SDS011;51233;51.982;4.594;2023-07-30T13:31:22;8.70;;;2.25;;
64799;SDS011;51233;51.982;4.594;2023-07-30T13:34:23;9.30;;;2.73;;
64799;SDS011;51233;51.982;4.594;2023-07-30T13:37:23;4.73;;;2.23;;
64799;SDS011;51233;51.982;4.594;2023-07-30T13:40:23;13.80;;;2.50;;
64799;SDS011;51233;51.982;4.594;2023-07-30T13:43:23;12.00;;;2.67;;
64799;SDS011;51233;51.982;4.594;2023-07-30T13:46:24;11.37;;;3.03;;
64799;SDS011;51233;51.982;4.594;2023-07-30T13:49:24;5.07;;;1.60;;
64799;SDS011;51233;51.982;4.594;2023-07-30T13:52:24;10.73;;;2.57;;
64799;SDS011;51233;51.982;4.594;2023-07-30T13:55:24;12.03;;;2.73;;
64799;SDS011;51233;51.982;4.594;2023-07-30T13:58:24;11.47;;;2.60;;
64799;SDS011;51233;51.982;4.594;2023-07-30T14:01:25;17.15;;;3.20;;
64799;SDS011;51233;51.982;4.594;2023-07-30T14:04:25;10.63;;;2.60;;
64799;SDS011;51233;51.982;4.594;2023-07-30T14:07:25;15.38;;;2.65;;
64799;SDS011;51233;51.982;4.594;2023-07-30T14:10:25;12.47;;;2.90;;
64799;SDS011;51233;51.982;4.594;2023-07-30T14:13:27;9.00;;;2.83;;
64799;SDS011;51233;51.982;4.594;2023-07-30T14:16:27;11.07;;;2.53;;
64799;SDS011;51233;51.982;4.594;2023-07-30T14:19:27;10.00;;;2.67;;
64799;SDS011;51233;51.982;4.594;2023-07-30T14:22:29;15.95;;;2.97;;
64799;SDS011;51233;51.982;4.594;2023-07-30T14:25:32;9.27;;;2.33;;
64799;SDS011;51233;51.982;4.594;2023-07-30T14:28:32;11.77;;;2.80;;
64799;SDS011;51233;51.982;4.594;2023-07-30T14:31:35;8.20;;;2.25;;
64799;SDS011;51233;51.982;4.594;2023-07-30T14:34:35;13.68;;;3.40;;
64799;SDS011;51233;51.982;4.594;2023-07-30T14:37:35;11.73;;;4.10;;
64799;SDS011;51233;51.982;4.594;2023-07-30T14:40:35;13.45;;;3.55;;
64799;SDS011;51233;51.982;4.594;2023-07-30T14:43:36;13.80;;;3.88;;
64799;SDS011;51233;51.982;4.594;2023-07-30T14:46:36;19.87;;;6.67;;
64799;SDS011;51233;51.982;4.594;2023-07-30T14:49:36;22.83;;;3.53;;
64799;SDS011;51233;51.982;4.594;2023-07-30T14:52:38;19.27;;;6.80;;
64799;SDS011;51233;51.982;4.594;2023-07-30T14:55:39;15.93;;;5.63;;
64799;SDS011;51233;51.982;4.594;2023-07-30T14:58:39;14.10;;;4.93;;
64799;SDS011;51233;51.982;4.594;2023-07-30T15:01:39;13.37;;;4.43;;
64799;SDS011;51233;51.982;4.594;2023-07-30T15:04:39;17.90;;;5.23;;
64799;SDS011;51233;51.982;4.594;2023-07-30T15:07:39;16.53;;;3.83;;
64799;SDS011;51233;51.982;4.594;2023-07-30T15:10:40;13.50;;;4.32;;
64799;SDS011;51233;51.982;4.594;2023-07-30T15:13:40;21.50;;;5.63;;
64799;SDS011;51233;51.982;4.594;2023-07-30T15:16:41;15.57;;;4.97;;
64799;SDS011;51233;51.982;4.594;2023-07-30T15:19:41;21.00;;;6.60;;
64799;SDS011;51233;51.982;4.594;2023-07-30T15:22:41;23.33;;;5.77;;
64799;SDS011;51233;51.982;4.594;2023-07-30T15:25:41;16.50;;;4.72;;
64799;SDS011;51233;51.982;4.594;2023-07-30T15:28:41;14.20;;;3.70;;
64799;SDS011;51233;51.982;4.594;2023-07-30T15:31:42;14.07;;;4.53;;
64799;SDS011;51233;51.982;4.594;2023-07-30T15:34:48;16.57;;;4.47;;
64799;SDS011;51233;51.982;4.594;2023-07-30T15:37:48;16.27;;;4.60;;
64799;SDS011;51233;51.982;4.594;2023-07-30T15:40:49;9.33;;;3.17;;
64799;SDS011;51233;51.982;4.594;2023-07-30T15:43:49;17.50;;;4.30;;
64799;SDS011;51233;51.982;4.594;2023-07-30T15:46:49;13.30;;;3.80;;
64799;SDS011;51233;51.982;4.594;2023-07-30T15:49:52;14.57;;;3.67;;
64799;SDS011;51233;51.982;4.594;2023-07-30T15:52:53;14.93;;;5.07;;
64799;SDS011;51233;51.982;4.594;2023-07-30T15:55:53;16.40;;;5.25;;
64799;SDS011;51233;51.982;4.594;2023-07-30T15:58:54;15.33;;;5.40;;
64799;SDS011;51233;51.982;4.594;2023-07-30T16:01:54;19.40;;;4.77;;
64799;SDS011;51233;51.982;4.594;2023-07-30T16:04:55;15.35;;;4.72;;
64799;SDS011;51233;51.982;4.594;2023-07-30T16:07:55;6.37;;;2.23;;
64799;SDS011;51233;51.982;4.594;2023-07-30T16:11:06;7.75;;;2.30;;
64799;SDS011;51233;51.982;4.594;2023-07-30T16:14:07;10.20;;;1.80;;
64799;SDS011;51233;51.982;4.594;2023-07-30T16:17:07;7.70;;;1.97;;
64799;SDS011;51233;51.982;4.594;2023-07-30T16:20:07;3.67;;;1.50;;
64799;SDS011;51233;51.982;4.594;2023-07-30T16:23:08;6.00;;;1.73;;
64799;SDS011;51233;51.982;4.594;2023-07-30T16:26:11;5.03;;;1.70;;
64799;SDS011;51233;51.982;4.594;2023-07-30T16:29:12;5.53;;;1.73;;
64799;SDS011;51233;51.982;4.594;2023-07-30T16:32:12;7.73;;;1.93;;
64799;SDS011;51233;51.982;4.594;2023-07-30T16:35:12;4.27;;;1.60;;
64799;SDS011;51233;51.982;4.594;2023-07-30T16:38:13;4.23;;;1.97;;
64799;SDS011;51233;51.982;4.594;2023-07-30T16:41:16;2.97;;;1.83;;
64799;SDS011;51233;51.982;4.594;2023-07-30T16:44:16;5.40;;;2.30;;
64799;SDS011;51233;51.982;4.594;2023-07-30T16:47:16;6.30;;;2.50;;
64799;SDS011;51233;51.982;4.594;2023-07-30T16:50:16;4.10;;;2.17;;
64799;SDS011;51233;51.982;4.594;2023-07-30T16:53:16;5.20;;;2.30;;
64799;SDS011;51233;51.982;4.594;2023-07-30T16:56:17;6.67;;;2.83;;
64799;SDS011;51233;51.982;4.594;2023-07-30T16:59:17;3.87;;;2.30;;
64799;SDS011;51233;51.982;4.594;2023-07-30T17:02:17;4.10;;;2.50;;
64799;SDS011;51233;51.982;4.594;2023-07-30T17:05:17;5.30;;;2.60;;
64799;SDS011;51233;51.982;4.594;2023-07-30T17:08:17;3.63;;;1.80;;
64799;SDS011;51233;51.982;4.594;2023-07-30T17:11:18;4.37;;;2.50;;
64799;SDS011;51233;51.982;4.594;2023-07-30T17:14:19;4.40;;;2.20;;
64799;SDS011;51233;51.982;4.594;2023-07-30T17:17:19;3.90;;;1.97;;
64799;SDS011;51233;51.982;4.594;2023-07-30T17:20:19;3.47;;;2.00;;
64799;SDS011;51233;51.982;4.594;2023-07-30T17:23:20;3.40;;;1.50;;
64799;SDS011;51233;51.982;4.594;2023-07-30T17:26:20;3.67;;;1.83;;
64799;SDS011;51233;51.982;4.594;2023-07-30T17:29:20;2.87;;;1.50;;
64799;SDS011;51233;51.982;4.594;2023-07-30T17:32:20;3.93;;;1.97;;
64799;SDS011;51233;51.982;4.594;2023-07-30T17:35:21;4.07;;;1.70;;
64799;SDS011;51233;51.982;4.594;2023-07-30T17:38:21;2.83;;;1.73;;
64799;SDS011;51233;51.982;4.594;2023-07-30T17:41:21;4.07;;;2.00;;
64799;SDS011;51233;51.982;4.594;2023-07-30T17:44:22;2.03;;;1.57;;
64799;SDS011;51233;51.982;4.594;2023-07-30T17:47:22;3.10;;;1.80;;
64799;SDS011;51233;51.982;4.594;2023-07-30T17:50:22;6.37;;;2.30;;
64799;SDS011;51233;51.982;4.594;2023-07-30T17:53:22;5.47;;;2.13;;
64799;SDS011;51233;51.982;4.594;2023-07-30T17:56:22;2.40;;;1.63;;
64799;SDS011;51233;51.982;4.594;2023-07-30T17:59:23;3.20;;;2.03;;
64799;SDS011;51233;51.982;4.594;2023-07-30T18:02:25;3.55;;;1.85;;
64799;SDS011;51233;51.982;4.594;2023-07-30T18:05:26;2.33;;;1.83;;
64799;SDS011;51233;51.982;4.594;2023-07-30T18:08:26;6.07;;;1.70;;